Flight Briefing for CPX656

Departure Arrival
Key West International Airport (KEYW)
Click to view FAA NOTAMS
The Florida Keys Marathon International Airport (KMTH)
Click to view FAA NOTAMS
Departure Time Arrival Time
N/A N/A
Aircraft Distance
SF340AF 40nm
Departure METAR Arrival METAR
KEYW 190753Z AUTO 03010G19KT 7SM -RA OVC012 22/20 A2996 RMK AO2 RAB43 SLP144 P0001 T02220200 KMTH 190753Z AUTO 03015G22KT 10SM SCT013 OVC075 23/19 A2994 RMK AO2 RAB0658E08 SLP139 P0000 T02280189
Suggested Route
VPKOE


View recent IFR Routes data
Notes



Charts and Procedures

Charts for KEYW
No chart available
Charts for KMTH
No chart available

Windy.com Weather Map